Accueil
METAR-TAF:

METAR-TAF

Aéroports :

Perth, Australie

Aéroport de Perth

latitude: 31-56S, longitude: 115-57E, altitude: 20 m

Observation

Le bulletin a été fait il y a 10 minutes, à 21:00 UTC
Vent 6 kt de sud
Température 9°C
Humidité 93%
Pression 1021 hPa
Visibilité 10 km ou plus
pas de nuages en-dessous de 1500 mètres et pas de cumulonimbus.

METAR: YPPH 242100Z 17006KT CAVOK 09/08 Q1021 NOSIG

Heure: 05:10 (21:10 UTC)

Prévision

Le bulletin a été fait il y a 4 heures et 7 minutes, à 17:03 UTC
Prévision valable du 24 à 18 UTC au 25 à 24 UTC
Vent 8 kt de sud-est
Visibilité 10 km ou plus
pas de nuages en-dessous de 1500 mètres et pas de cumulonimbus.

TAF: YPPH 241703Z 2418/2524 13008KT CAVOK

Observations et prévisions météorologiques de plus de 4000 aéroports (messages METAR et TAF).

Les stations disponibles sont représentées par des disques jaunes et rouges sur la carte.

Passer la souris dessus pour voir le nom de la station.

Cliquer dessus pour voir les observations et prévisions météorologiques.

Pour changer de carte: cliquez sur les boutons verts avec une croix noire pour zoomer, sur le bouton vert avec un tiret pour effectuer un zoom arrière, ou sur les flèches vertes pour les cartes adjacentes.


METAR-TAF: